sensor_id;sensor_type;location;lat;lon;timestamp;temperature;humidity
20546;DHT22;10431;50.228;9.112;2023-04-19T00:00:40;19.00;85.50
20546;DHT22;10431;50.228;9.112;2023-04-19T00:03:07;19.00;85.50
20546;DHT22;10431;50.228;9.112;2023-04-19T00:05:34;19.00;85.50
20546;DHT22;10431;50.228;9.112;2023-04-19T00:08:00;18.90;85.50
20546;DHT22;10431;50.228;9.112;2023-04-19T00:10:26;18.90;85.50
20546;DHT22;10431;50.228;9.112;2023-04-19T00:12:52;18.90;85.50
20546;DHT22;10431;50.228;9.112;2023-04-19T00:15:18;18.90;85.50
20546;DHT22;10431;50.228;9.112;2023-04-19T00:17:45;18.90;85.80
20546;DHT22;10431;50.228;9.112;2023-04-19T00:20:12;18.90;85.60
20546;DHT22;10431;50.228;9.112;2023-04-19T00:22:39;18.90;85.60
20546;DHT22;10431;50.228;9.112;2023-04-19T00:25:05;18.90;85.60
20546;DHT22;10431;50.228;9.112;2023-04-19T00:27:32;18.90;85.50
20546;DHT22;10431;50.228;9.112;2023-04-19T00:29:59;18.90;85.60
20546;DHT22;10431;50.228;9.112;2023-04-19T00:32:25;18.90;85.60
20546;DHT22;10431;50.228;9.112;2023-04-19T00:34:52;18.90;85.60
20546;DHT22;10431;50.228;9.112;2023-04-19T00:37:18;18.90;85.60
20546;DHT22;10431;50.228;9.112;2023-04-19T00:39:44;18.90;85.60
20546;DHT22;10431;50.228;9.112;2023-04-19T00:42:10;18.90;85.70
20546;DHT22;10431;50.228;9.112;2023-04-19T00:44:38;18.90;85.70
20546;DHT22;10431;50.228;9.112;2023-04-19T00:47:04;18.90;85.80
20546;DHT22;10431;50.228;9.112;2023-04-19T00:49:31;18.90;85.70
20546;DHT22;10431;50.228;9.112;2023-04-19T00:51:57;18.90;85.70
20546;DHT22;10431;50.228;9.112;2023-04-19T00:54:23;18.90;85.70
20546;DHT22;10431;50.228;9.112;2023-04-19T00:56:50;18.90;85.80
20546;DHT22;10431;50.228;9.112;2023-04-19T00:59:17;18.90;85.80
20546;DHT22;10431;50.228;9.112;2023-04-19T01:01:44;18.90;85.80
20546;DHT22;10431;50.228;9.112;2023-04-19T01:04:10;18.90;85.80
20546;DHT22;10431;50.228;9.112;2023-04-19T01:06:37;18.90;85.80
20546;DHT22;10431;50.228;9.112;2023-04-19T01:09:05;18.90;85.90
20546;DHT22;10431;50.228;9.112;2023-04-19T01:11:31;18.90;85.80
20546;DHT22;10431;50.228;9.112;2023-04-19T01:13:57;18.90;85.80
20546;DHT22;10431;50.228;9.112;2023-04-19T01:16:25;18.80;85.80
20546;DHT22;10431;50.228;9.112;2023-04-19T01:18:52;18.90;85.90
20546;DHT22;10431;50.228;9.112;2023-04-19T01:21:19;18.80;85.80
20546;DHT22;10431;50.228;9.112;2023-04-19T01:23:47;18.90;85.90
20546;DHT22;10431;50.228;9.112;2023-04-19T01:26:14;18.90;85.90
20546;DHT22;10431;50.228;9.112;2023-04-19T01:28:41;18.80;85.80
20546;DHT22;10431;50.228;9.112;2023-04-19T01:31:08;18.90;85.90
20546;DHT22;10431;50.228;9.112;2023-04-19T01:33:36;18.90;85.90
20546;DHT22;10431;50.228;9.112;2023-04-19T01:36:02;18.80;85.80
20546;DHT22;10431;50.228;9.112;2023-04-19T01:38:28;18.90;85.90
20546;DHT22;10431;50.228;9.112;2023-04-19T01:40:55;18.90;85.90
20546;DHT22;10431;50.228;9.112;2023-04-19T01:43:23;18.90;86.60
20546;DHT22;10431;50.228;9.112;2023-04-19T01:45:50;18.80;85.80
20546;DHT22;10431;50.228;9.112;2023-04-19T01:48:18;18.80;85.80
20546;DHT22;10431;50.228;9.112;2023-04-19T01:50:44;18.80;85.80
20546;DHT22;10431;50.228;9.112;2023-04-19T01:53:11;18.80;85.80
20546;DHT22;10431;50.228;9.112;2023-04-19T01:55:37;18.80;85.90
20546;DHT22;10431;50.228;9.112;2023-04-19T01:58:03;18.80;85.80
20546;DHT22;10431;50.228;9.112;2023-04-19T02:00:30;18.80;85.90
20546;DHT22;10431;50.228;9.112;2023-04-19T02:02:56;18.80;85.80
20546;DHT22;10431;50.228;9.112;2023-04-19T02:05:22;18.80;85.90
20546;DHT22;10431;50.228;9.112;2023-04-19T02:07:48;18.80;85.90
20546;DHT22;10431;50.228;9.112;2023-04-19T02:10:15;18.80;85.90
20546;DHT22;10431;50.228;9.112;2023-04-19T02:12:41;18.80;86.00
20546;DHT22;10431;50.228;9.112;2023-04-19T02:15:08;18.80;85.90
20546;DHT22;10431;50.228;9.112;2023-04-19T02:17:34;18.80;85.90
20546;DHT22;10431;50.228;9.112;2023-04-19T02:20:01;18.80;85.90
20546;DHT22;10431;50.228;9.112;2023-04-19T02:22:27;18.80;85.90
20546;DHT22;10431;50.228;9.112;2023-04-19T02:24:53;18.80;86.00
20546;DHT22;10431;50.228;9.112;2023-04-19T02:27:27;18.80;86.00
20546;DHT22;10431;50.228;9.112;2023-04-19T02:29:54;18.80;86.00
20546;DHT22;10431;50.228;9.112;2023-04-19T02:32:20;18.80;86.10
20546;DHT22;10431;50.228;9.112;2023-04-19T02:34:46;18.70;85.90
20546;DHT22;10431;50.228;9.112;2023-04-19T02:37:12;18.80;86.10
20546;DHT22;10431;50.228;9.112;2023-04-19T02:39:39;18.80;86.10
20546;DHT22;10431;50.228;9.112;2023-04-19T02:42:07;18.70;86.00
20546;DHT22;10431;50.228;9.112;2023-04-19T02:44:33;18.80;86.10
20546;DHT22;10431;50.228;9.112;2023-04-19T02:46:59;18.80;86.10
20546;DHT22;10431;50.228;9.112;2023-04-19T02:49:26;18.80;86.10
20546;DHT22;10431;50.228;9.112;2023-04-19T02:51:52;18.80;86.10
20546;DHT22;10431;50.228;9.112;2023-04-19T02:54:19;18.70;86.00
20546;DHT22;10431;50.228;9.112;2023-04-19T02:56:46;18.80;86.10
20546;DHT22;10431;50.228;9.112;2023-04-19T02:59:12;18.80;86.20
20546;DHT22;10431;50.228;9.112;2023-04-19T03:01:38;18.70;86.00
20546;DHT22;10431;50.228;9.112;2023-04-19T03:04:06;18.70;86.10
20546;DHT22;10431;50.228;9.112;2023-04-19T03:06:32;18.70;86.10
20546;DHT22;10431;50.228;9.112;2023-04-19T03:08:58;18.70;86.10
20546;DHT22;10431;50.228;9.112;2023-04-19T03:11:26;18.70;86.20
20546;DHT22;10431;50.228;9.112;2023-04-19T03:13:53;18.70;86.10
20546;DHT22;10431;50.228;9.112;2023-04-19T03:16:19;18.70;86.10
20546;DHT22;10431;50.228;9.112;2023-04-19T03:18:46;18.80;86.20
20546;DHT22;10431;50.228;9.112;2023-04-19T03:21:12;18.70;86.10
20546;DHT22;10431;50.228;9.112;2023-04-19T03:24:05;18.70;86.10
20546;DHT22;10431;50.228;9.112;2023-04-19T03:26:31;18.70;86.10
20546;DHT22;10431;50.228;9.112;2023-04-19T03:28:58;18.70;86.10
20546;DHT22;10431;50.228;9.112;2023-04-19T03:31:38;18.70;86.10
20546;DHT22;10431;50.228;9.112;2023-04-19T03:34:04;18.70;86.10
20546;DHT22;10431;50.228;9.112;2023-04-19T03:36:38;18.70;86.10
20546;DHT22;10431;50.228;9.112;2023-04-19T03:39:05;18.70;86.10
20546;DHT22;10431;50.228;9.112;2023-04-19T03:41:31;18.70;86.10
20546;DHT22;10431;50.228;9.112;2023-04-19T03:44:08;18.70;86.10
20546;DHT22;10431;50.228;9.112;2023-04-19T03:46:34;18.70;86.20
20546;DHT22;10431;50.228;9.112;2023-04-19T03:49:01;18.70;86.10
20546;DHT22;10431;50.228;9.112;2023-04-19T03:51:28;18.70;86.10
20546;DHT22;10431;50.228;9.112;2023-04-19T03:53:55;18.70;86.10
20546;DHT22;10431;50.228;9.112;2023-04-19T03:56:21;18.70;86.20
20546;DHT22;10431;50.228;9.112;2023-04-19T03:58:50;18.70;86.20
20546;DHT22;10431;50.228;9.112;2023-04-19T04:01:20;18.70;86.30
20546;DHT22;10431;50.228;9.112;2023-04-19T04:03:48;18.70;86.20
20546;DHT22;10431;50.228;9.112;2023-04-19T04:06:14;18.70;86.20
20546;DHT22;10431;50.228;9.112;2023-04-19T04:08:40;18.70;86.20
20546;DHT22;10431;50.228;9.112;2023-04-19T04:11:07;18.70;86.20
20546;DHT22;10431;50.228;9.112;2023-04-19T04:13:34;18.70;86.20
20546;DHT22;10431;50.228;9.112;2023-04-19T04:16:06;18.70;86.20
20546;DHT22;10431;50.228;9.112;2023-04-19T04:18:33;18.70;86.90
20546;DHT22;10431;50.228;9.112;2023-04-19T04:21:02;18.70;86.20
20546;DHT22;10431;50.228;9.112;2023-04-19T04:23:29;18.60;86.20
20546;DHT22;10431;50.228;9.112;2023-04-19T04:25:59;18.60;86.20
20546;DHT22;10431;50.228;9.112;2023-04-19T04:28:30;18.70;86.30
20546;DHT22;10431;50.228;9.112;2023-04-19T04:30:57;18.70;86.30
20546;DHT22;10431;50.228;9.112;2023-04-19T04:33:26;18.70;86.30
20546;DHT22;10431;50.228;9.112;2023-04-19T04:35:53;18.60;86.20
20546;DHT22;10431;50.228;9.112;2023-04-19T04:38:22;18.60;86.20
20546;DHT22;10431;50.228;9.112;2023-04-19T04:40:49;18.60;86.20
20546;DHT22;10431;50.228;9.112;2023-04-19T04:43:22;18.70;86.30
20546;DHT22;10431;50.228;9.112;2023-04-19T04:45:49;18.70;86.30
20546;DHT22;10431;50.228;9.112;2023-04-19T04:48:16;18.60;86.20
20546;DHT22;10431;50.228;9.112;2023-04-19T04:50:43;18.70;86.30
20546;DHT22;10431;50.228;9.112;2023-04-19T04:53:09;18.60;86.30
20546;DHT22;10431;50.228;9.112;2023-04-19T04:55:39;18.60;86.20
20546;DHT22;10431;50.228;9.112;2023-04-19T04:58:06;18.70;86.10
20546;DHT22;10431;50.228;9.112;2023-04-19T05:01:01;18.70;86.40
20546;DHT22;10431;50.228;9.112;2023-04-19T05:03:30;18.90;86.20
20546;DHT22;10431;50.228;9.112;2023-04-19T05:05:58;19.10;85.90
20546;DHT22;10431;50.228;9.112;2023-04-19T05:08:25;19.20;85.50
20546;DHT22;10431;50.228;9.112;2023-04-19T05:10:56;19.30;85.30
20546;DHT22;10431;50.228;9.112;2023-04-19T05:13:26;19.40;85.10
20546;DHT22;10431;50.228;9.112;2023-04-19T05:15:53;19.50;84.90
20546;DHT22;10431;50.228;9.112;2023-04-19T05:18:20;19.50;84.80
20546;DHT22;10431;50.228;9.112;2023-04-19T05:20:46;19.50;84.60
20546;DHT22;10431;50.228;9.112;2023-04-19T05:23:18;19.60;84.60
20546;DHT22;10431;50.228;9.112;2023-04-19T05:25:45;19.60;84.60
20546;DHT22;10431;50.228;9.112;2023-04-19T05:28:12;19.60;84.60
20546;DHT22;10431;50.228;9.112;2023-04-19T05:30:55;19.50;84.60
20546;DHT22;10431;50.228;9.112;2023-04-19T05:33:24;18.60;80.00
20546;DHT22;10431;50.228;9.112;2023-04-19T05:35:55;18.20;81.20
20546;DHT22;10431;50.228;9.112;2023-04-19T05:38:22;18.40;82.40
20546;DHT22;10431;50.228;9.112;2023-04-19T05:40:48;18.50;83.00
20546;DHT22;10431;50.228;9.112;2023-04-19T05:43:14;18.60;82.10
20546;DHT22;10431;50.228;9.112;2023-04-19T05:45:41;18.70;82.90
20546;DHT22;10431;50.228;9.112;2023-04-19T05:48:07;18.70;83.00
20546;DHT22;10431;50.228;9.112;2023-04-19T05:50:57;18.80;82.50
20546;DHT22;10431;50.228;9.112;2023-04-19T05:54:02;18.90;81.70
20546;DHT22;10431;50.228;9.112;2023-04-19T05:56:29;19.00;81.70
20546;DHT22;10431;50.228;9.112;2023-04-19T05:58:55;19.10;81.80
20546;DHT22;10431;50.228;9.112;2023-04-19T06:01:22;19.10;81.80
20546;DHT22;10431;50.228;9.112;2023-04-19T06:03:49;19.10;81.80
20546;DHT22;10431;50.228;9.112;2023-04-19T06:06:19;19.20;81.90
20546;DHT22;10431;50.228;9.112;2023-04-19T06:08:46;19.20;82.20
20546;DHT22;10431;50.228;9.112;2023-04-19T06:11:12;19.20;82.20
20546;DHT22;10431;50.228;9.112;2023-04-19T06:13:38;19.10;81.20
20546;DHT22;10431;50.228;9.112;2023-04-19T06:16:05;19.10;81.90
20546;DHT22;10431;50.228;9.112;2023-04-19T06:18:32;19.10;81.90
20546;DHT22;10431;50.228;9.112;2023-04-19T06:20:58;19.20;82.00
20546;DHT22;10431;50.228;9.112;2023-04-19T06:23:24;19.20;82.00
20546;DHT22;10431;50.228;9.112;2023-04-19T06:25:52;19.20;82.20
20546;DHT22;10431;50.228;9.112;2023-04-19T06:28:18;19.20;82.30
20546;DHT22;10431;50.228;9.112;2023-04-19T06:30:44;19.20;82.50
20546;DHT22;10431;50.228;9.112;2023-04-19T06:33:10;19.20;82.50
20546;DHT22;10431;50.228;9.112;2023-04-19T06:35:37;19.20;82.60
20546;DHT22;10431;50.228;9.112;2023-04-19T06:38:03;19.30;82.70
20546;DHT22;10431;50.228;9.112;2023-04-19T06:40:29;19.30;82.80
20546;DHT22;10431;50.228;9.112;2023-04-19T06:42:56;19.30;82.80
20546;DHT22;10431;50.228;9.112;2023-04-19T06:45:23;19.30;82.90
20546;DHT22;10431;50.228;9.112;2023-04-19T06:47:49;19.30;83.10
20546;DHT22;10431;50.228;9.112;2023-04-19T06:50:15;19.30;83.40
20546;DHT22;10431;50.228;9.112;2023-04-19T06:52:42;19.40;83.60
20546;DHT22;10431;50.228;9.112;2023-04-19T06:55:08;19.50;83.90
20546;DHT22;10431;50.228;9.112;2023-04-19T06:57:34;19.50;83.90
20546;DHT22;10431;50.228;9.112;2023-04-19T07:00:01;19.50;83.90
20546;DHT22;10431;50.228;9.112;2023-04-19T07:02:27;19.50;83.90
20546;DHT22;10431;50.228;9.112;2023-04-19T07:04:54;19.50;83.90
20546;DHT22;10431;50.228;9.112;2023-04-19T07:07:20;19.50;84.00
20546;DHT22;10431;50.228;9.112;2023-04-19T07:09:46;19.50;84.10
20546;DHT22;10431;50.228;9.112;2023-04-19T07:12:12;19.40;84.90
20546;DHT22;10431;50.228;9.112;2023-04-19T07:14:38;19.50;84.30
20546;DHT22;10431;50.228;9.112;2023-04-19T07:17:05;19.40;84.40
20546;DHT22;10431;50.228;9.112;2023-04-19T07:19:31;19.40;84.50
20546;DHT22;10431;50.228;9.112;2023-04-19T07:21:58;19.40;84.70
20546;DHT22;10431;50.228;9.112;2023-04-19T07:24:24;19.40;84.80
20546;DHT22;10431;50.228;9.112;2023-04-19T07:26:52;19.30;84.90
20546;DHT22;10431;50.228;9.112;2023-04-19T07:29:18;19.30;84.90
20546;DHT22;10431;50.228;9.112;2023-04-19T07:31:45;19.30;84.90
20546;DHT22;10431;50.228;9.112;2023-04-19T07:34:11;19.30;84.90
20546;DHT22;10431;50.228;9.112;2023-04-19T07:36:37;19.30;84.90
20546;DHT22;10431;50.228;9.112;2023-04-19T07:39:04;19.30;84.90
20546;DHT22;10431;50.228;9.112;2023-04-19T07:41:31;19.30;84.90
20546;DHT22;10431;50.228;9.112;2023-04-19T07:43:57;19.30;84.80
20546;DHT22;10431;50.228;9.112;2023-04-19T07:46:23;19.40;84.80
20546;DHT22;10431;50.228;9.112;2023-04-19T07:48:49;19.30;84.70
20546;DHT22;10431;50.228;9.112;2023-04-19T07:51:16;19.40;84.60
20546;DHT22;10431;50.228;9.112;2023-04-19T07:53:43;19.40;84.60
20546;DHT22;10431;50.228;9.112;2023-04-19T07:56:09;19.50;84.50
20546;DHT22;10431;50.228;9.112;2023-04-19T07:58:37;19.50;84.50
20546;DHT22;10431;50.228;9.112;2023-04-19T08:01:03;19.50;84.50
20546;DHT22;10431;50.228;9.112;2023-04-19T08:03:30;19.60;84.60
20546;DHT22;10431;50.228;9.112;2023-04-19T08:06:00;19.50;84.00
20546;DHT22;10431;50.228;9.112;2023-04-19T08:08:27;19.30;81.50
20546;DHT22;10431;50.228;9.112;2023-04-19T08:10:53;19.20;80.20
20546;DHT22;10431;50.228;9.112;2023-04-19T08:13:20;19.00;77.70
20546;DHT22;10431;50.228;9.112;2023-04-19T08:15:46;19.00;77.90
20546;DHT22;10431;50.228;9.112;2023-04-19T08:18:12;18.90;76.40
20546;DHT22;10431;50.228;9.112;2023-04-19T08:20:39;18.80;77.70
20546;DHT22;10431;50.228;9.112;2023-04-19T08:23:07;19.00;79.30
20546;DHT22;10431;50.228;9.112;2023-04-19T08:25:34;19.20;78.70
20546;DHT22;10431;50.228;9.112;2023-04-19T08:28:01;19.30;78.80
20546;DHT22;10431;50.228;9.112;2023-04-19T08:30:27;19.40;79.00
20546;DHT22;10431;50.228;9.112;2023-04-19T08:32:53;19.50;79.50
20546;DHT22;10431;50.228;9.112;2023-04-19T08:35:19;19.50;79.60
20546;DHT22;10431;50.228;9.112;2023-04-19T08:37:46;19.60;79.80
20546;DHT22;10431;50.228;9.112;2023-04-19T08:40:13;19.70;80.00
20546;DHT22;10431;50.228;9.112;2023-04-19T08:42:39;19.80;80.10
20546;DHT22;10431;50.228;9.112;2023-04-19T08:45:06;19.80;80.40
20546;DHT22;10431;50.228;9.112;2023-04-19T08:47:33;19.90;80.70
20546;DHT22;10431;50.228;9.112;2023-04-19T08:50:03;19.90;80.90
20546;DHT22;10431;50.228;9.112;2023-04-19T08:52:29;19.90;81.10
20546;DHT22;10431;50.228;9.112;2023-04-19T08:55:02;19.90;81.40
20546;DHT22;10431;50.228;9.112;2023-04-19T08:57:30;19.90;81.60
20546;DHT22;10431;50.228;9.112;2023-04-19T09:00:01;19.80;81.20
20546;DHT22;10431;50.228;9.112;2023-04-19T09:02:46;19.80;81.40
20546;DHT22;10431;50.228;9.112;2023-04-19T09:05:14;19.80;81.70
20546;DHT22;10431;50.228;9.112;2023-04-19T09:07:41;19.90;81.80
20546;DHT22;10431;50.228;9.112;2023-04-19T09:10:09;19.90;81.90
20546;DHT22;10431;50.228;9.112;2023-04-19T09:12:38;19.90;82.00
20546;DHT22;10431;50.228;9.112;2023-04-19T09:15:06;19.90;82.10
20546;DHT22;10431;50.228;9.112;2023-04-19T09:17:36;19.90;82.20
20546;DHT22;10431;50.228;9.112;2023-04-19T09:20:04;19.90;82.20
20546;DHT22;10431;50.228;9.112;2023-04-19T09:22:31;19.80;81.10
20546;DHT22;10431;50.228;9.112;2023-04-19T09:24:58;19.30;73.80
20546;DHT22;10431;50.228;9.112;2023-04-19T09:27:28;19.20;77.50
20546;DHT22;10431;50.228;9.112;2023-04-19T09:29:55;19.30;77.80
20546;DHT22;10431;50.228;9.112;2023-04-19T09:32:22;19.40;77.80
20546;DHT22;10431;50.228;9.112;2023-04-19T09:34:58;19.50;78.20
20546;DHT22;10431;50.228;9.112;2023-04-19T09:37:25;19.60;78.90
20546;DHT22;10431;50.228;9.112;2023-04-19T09:39:52;19.60;79.70
20546;DHT22;10431;50.228;9.112;2023-04-19T09:42:18;19.70;80.00
20546;DHT22;10431;50.228;9.112;2023-04-19T09:44:55;19.70;80.30
20546;DHT22;10431;50.228;9.112;2023-04-19T09:47:23;19.70;80.50
20546;DHT22;10431;50.228;9.112;2023-04-19T09:52:29;19.50;78.20
20546;DHT22;10431;50.228;9.112;2023-04-19T09:54:57;19.50;79.80
20546;DHT22;10431;50.228;9.112;2023-04-19T09:57:25;19.60;79.40
20546;DHT22;10431;50.228;9.112;2023-04-19T09:59:51;19.60;79.70
20546;DHT22;10431;50.228;9.112;2023-04-19T10:02:18;19.70;80.00
20546;DHT22;10431;50.228;9.112;2023-04-19T10:04:45;19.70;80.10
20546;DHT22;10431;50.228;9.112;2023-04-19T10:07:12;19.80;80.20
20546;DHT22;10431;50.228;9.112;2023-04-19T10:09:38;19.80;80.30
20546;DHT22;10431;50.228;9.112;2023-04-19T10:12:04;19.80;80.40
20546;DHT22;10431;50.228;9.112;2023-04-19T10:14:34;19.80;80.40
20546;DHT22;10431;50.228;9.112;2023-04-19T10:17:01;19.80;80.40
20546;DHT22;10431;50.228;9.112;2023-04-19T10:19:28;19.80;80.20
20546;DHT22;10431;50.228;9.112;2023-04-19T10:21:55;19.80;80.30
20546;DHT22;10431;50.228;9.112;2023-04-19T10:24:22;19.80;80.50
20546;DHT22;10431;50.228;9.112;2023-04-19T10:27:08;19.80;80.60
20546;DHT22;10431;50.228;9.112;2023-04-19T10:29:54;19.80;80.60
20546;DHT22;10431;50.228;9.112;2023-04-19T10:32:21;19.80;80.60
20546;DHT22;10431;50.228;9.112;2023-04-19T10:34:47;19.80;80.70
20546;DHT22;10431;50.228;9.112;2023-04-19T10:37:13;19.80;80.80
20546;DHT22;10431;50.228;9.112;2023-04-19T10:39:41;19.80;80.80
20546;DHT22;10431;50.228;9.112;2023-04-19T10:42:08;19.80;80.80
20546;DHT22;10431;50.228;9.112;2023-04-19T10:44:34;19.80;80.80
20546;DHT22;10431;50.228;9.112;2023-04-19T10:47:00;19.80;80.80
20546;DHT22;10431;50.228;9.112;2023-04-19T10:49:29;19.90;80.80
20546;DHT22;10431;50.228;9.112;2023-04-19T10:51:56;19.90;80.90
20546;DHT22;10431;50.228;9.112;2023-04-19T10:54:32;19.90;80.90
20546;DHT22;10431;50.228;9.112;2023-04-19T10:59:34;19.90;80.90
20546;DHT22;10431;50.228;9.112;2023-04-19T11:07:16;19.90;81.00
20546;DHT22;10431;50.228;9.112;2023-04-19T11:09:47;19.90;81.10
20546;DHT22;10431;50.228;9.112;2023-04-19T11:12:15;19.90;81.00
20546;DHT22;10431;50.228;9.112;2023-04-19T11:14:57;19.70;79.70
20546;DHT22;10431;50.228;9.112;2023-04-19T11:17:27;19.80;79.20
20546;DHT22;10431;50.228;9.112;2023-04-19T11:22:29;19.80;79.50
20546;DHT22;10431;50.228;9.112;2023-04-19T11:24:56;19.80;79.00
20546;DHT22;10431;50.228;9.112;2023-04-19T11:27:22;19.80;79.20
20546;DHT22;10431;50.228;9.112;2023-04-19T11:29:48;19.80;79.60
20546;DHT22;10431;50.228;9.112;2023-04-19T11:32:15;19.80;80.00
20546;DHT22;10431;50.228;9.112;2023-04-19T11:34:41;19.80;80.20
20546;DHT22;10431;50.228;9.112;2023-04-19T11:37:08;19.80;80.40
20546;DHT22;10431;50.228;9.112;2023-04-19T11:39:44;19.80;80.60
20546;DHT22;10431;50.228;9.112;2023-04-19T11:42:18;19.80;80.70
20546;DHT22;10431;50.228;9.112;2023-04-19T11:44:51;19.80;80.80
20546;DHT22;10431;50.228;9.112;2023-04-19T11:47:18;19.80;80.90
20546;DHT22;10431;50.228;9.112;2023-04-19T11:49:46;19.80;81.00
20546;DHT22;10431;50.228;9.112;2023-04-19T11:52:22;19.80;80.90
20546;DHT22;10431;50.228;9.112;2023-04-19T11:54:53;19.80;80.80
20546;DHT22;10431;50.228;9.112;2023-04-19T11:57:29;19.80;80.80
20546;DHT22;10431;50.228;9.112;2023-04-19T12:00:04;19.90;80.90
20546;DHT22;10431;50.228;9.112;2023-04-19T12:02:40;19.80;81.20
20546;DHT22;10431;50.228;9.112;2023-04-19T12:05:12;19.90;81.60
20546;DHT22;10431;50.228;9.112;2023-04-19T12:10:26;19.90;81.80
20546;DHT22;10431;50.228;9.112;2023-04-19T12:12:53;19.90;81.90
20546;DHT22;10431;50.228;9.112;2023-04-19T12:15:19;19.80;81.90
20546;DHT22;10431;50.228;9.112;2023-04-19T12:17:59;19.90;82.10
20546;DHT22;10431;50.228;9.112;2023-04-19T12:20:34;19.90;82.10
20546;DHT22;10431;50.228;9.112;2023-04-19T12:23:02;19.90;82.20
20546;DHT22;10431;50.228;9.112;2023-04-19T12:25:29;19.80;82.10
20546;DHT22;10431;50.228;9.112;2023-04-19T12:27:56;19.70;82.00
20546;DHT22;10431;50.228;9.112;2023-04-19T12:30:22;19.70;80.80
20546;DHT22;10431;50.228;9.112;2023-04-19T12:32:49;19.70;80.50
20546;DHT22;10431;50.228;9.112;2023-04-19T12:35:16;19.70;80.70
20546;DHT22;10431;50.228;9.112;2023-04-19T12:37:43;19.70;80.90
20546;DHT22;10431;50.228;9.112;2023-04-19T12:40:09;19.70;81.10
20546;DHT22;10431;50.228;9.112;2023-04-19T12:42:36;19.70;81.40
20546;DHT22;10431;50.228;9.112;2023-04-19T12:45:02;19.70;81.70
20546;DHT22;10431;50.228;9.112;2023-04-19T12:47:29;19.70;81.70
20546;DHT22;10431;50.228;9.112;2023-04-19T12:49:55;19.70;81.80
20546;DHT22;10431;50.228;9.112;2023-04-19T12:52:22;19.70;82.00
20546;DHT22;10431;50.228;9.112;2023-04-19T12:54:49;19.60;82.00
20546;DHT22;10431;50.228;9.112;2023-04-19T12:57:15;19.60;82.20
20546;DHT22;10431;50.228;9.112;2023-04-19T12:59:41;19.60;82.30
20546;DHT22;10431;50.228;9.112;2023-04-19T13:02:08;19.60;82.40
20546;DHT22;10431;50.228;9.112;2023-04-19T13:04:35;19.50;81.30
20546;DHT22;10431;50.228;9.112;2023-04-19T13:07:01;19.50;81.50
20546;DHT22;10431;50.228;9.112;2023-04-19T13:09:27;19.50;81.70
20546;DHT22;10431;50.228;9.112;2023-04-19T13:11:54;19.50;81.70
20546;DHT22;10431;50.228;9.112;2023-04-19T13:14:21;19.50;81.80
20546;DHT22;10431;50.228;9.112;2023-04-19T13:16:47;19.40;81.80
20546;DHT22;10431;50.228;9.112;2023-04-19T13:19:13;19.40;81.80
20546;DHT22;10431;50.228;9.112;2023-04-19T13:21:40;19.40;81.90
20546;DHT22;10431;50.228;9.112;2023-04-19T13:24:07;19.40;81.70
20546;DHT22;10431;50.228;9.112;2023-04-19T13:26:33;19.40;81.40
20546;DHT22;10431;50.228;9.112;2023-04-19T13:29:00;19.30;81.90
20546;DHT22;10431;50.228;9.112;2023-04-19T13:31:26;19.40;82.00
20546;DHT22;10431;50.228;9.112;2023-04-19T13:33:53;19.20;80.00
20546;DHT22;10431;50.228;9.112;2023-04-19T13:36:20;19.30;80.90
20546;DHT22;10431;50.228;9.112;2023-04-19T13:38:46;19.30;80.30
20546;DHT22;10431;50.228;9.112;2023-04-19T13:41:13;19.30;80.20
20546;DHT22;10431;50.228;9.112;2023-04-19T13:43:39;19.20;80.00
20546;DHT22;10431;50.228;9.112;2023-04-19T13:46:05;19.20;79.90
20546;DHT22;10431;50.228;9.112;2023-04-19T13:48:32;19.20;79.80
20546;DHT22;10431;50.228;9.112;2023-04-19T13:50:58;19.30;80.00
20546;DHT22;10431;50.228;9.112;2023-04-19T13:53:25;19.30;80.20
20546;DHT22;10431;50.228;9.112;2023-04-19T13:55:52;19.30;80.20
20546;DHT22;10431;50.228;9.112;2023-04-19T13:58:18;19.30;80.30
20546;DHT22;10431;50.228;9.112;2023-04-19T14:00:44;19.30;80.40
20546;DHT22;10431;50.228;9.112;2023-04-19T14:03:10;19.30;80.50
20546;DHT22;10431;50.228;9.112;2023-04-19T14:05:37;19.40;80.60
20546;DHT22;10431;50.228;9.112;2023-04-19T14:08:03;19.40;80.80
20546;DHT22;10431;50.228;9.112;2023-04-19T14:10:29;19.40;80.90
20546;DHT22;10431;50.228;9.112;2023-04-19T14:12:56;19.40;81.20
20546;DHT22;10431;50.228;9.112;2023-04-19T14:15:22;19.40;81.40
20546;DHT22;10431;50.228;9.112;2023-04-19T14:17:50;19.40;81.50
20546;DHT22;10431;50.228;9.112;2023-04-19T14:20:17;19.40;81.40
20546;DHT22;10431;50.228;9.112;2023-04-19T14:22:44;19.40;81.50
20546;DHT22;10431;50.228;9.112;2023-04-19T14:25:11;19.40;81.70
20546;DHT22;10431;50.228;9.112;2023-04-19T14:27:40;19.40;81.80
20546;DHT22;10431;50.228;9.112;2023-04-19T14:30:07;19.40;81.80
20546;DHT22;10431;50.228;9.112;2023-04-19T14:32:34;19.40;82.00
20546;DHT22;10431;50.228;9.112;2023-04-19T14:35:00;19.40;81.80
20546;DHT22;10431;50.228;9.112;2023-04-19T14:37:27;19.40;81.90
20546;DHT22;10431;50.228;9.112;2023-04-19T14:39:53;19.40;82.00
20546;DHT22;10431;50.228;9.112;2023-04-19T14:42:20;19.40;82.20
20546;DHT22;10431;50.228;9.112;2023-04-19T14:44:46;19.40;82.30
20546;DHT22;10431;50.228;9.112;2023-04-19T14:47:12;19.40;82.40
20546;DHT22;10431;50.228;9.112;2023-04-19T14:49:40;19.40;82.50
20546;DHT22;10431;50.228;9.112;2023-04-19T14:52:06;19.40;82.60
20546;DHT22;10431;50.228;9.112;2023-04-19T14:54:33;19.30;82.30
20546;DHT22;10431;50.228;9.112;2023-04-19T14:56:59;19.30;82.50
20546;DHT22;10431;50.228;9.112;2023-04-19T14:59:26;19.30;82.00
20546;DHT22;10431;50.228;9.112;2023-04-19T15:01:52;19.30;82.30
20546;DHT22;10431;50.228;9.112;2023-04-19T15:04:18;19.10;75.60
20546;DHT22;10431;50.228;9.112;2023-04-19T15:06:44;19.10;77.90
20546;DHT22;10431;50.228;9.112;2023-04-19T15:09:11;19.10;77.90
20546;DHT22;10431;50.228;9.112;2023-04-19T15:11:37;19.20;78.00
20546;DHT22;10431;50.228;9.112;2023-04-19T15:14:04;19.20;78.20
20546;DHT22;10431;50.228;9.112;2023-04-19T15:16:30;19.20;78.50
20546;DHT22;10431;50.228;9.112;2023-04-19T15:18:56;19.20;78.80
20546;DHT22;10431;50.228;9.112;2023-04-19T15:21:23;19.20;79.00
20546;DHT22;10431;50.228;9.112;2023-04-19T15:23:49;19.20;79.30
20546;DHT22;10431;50.228;9.112;2023-04-19T15:26:16;19.20;79.70
20546;DHT22;10431;50.228;9.112;2023-04-19T15:28:42;19.20;79.70
20546;DHT22;10431;50.228;9.112;2023-04-19T15:31:08;19.20;79.80
20546;DHT22;10431;50.228;9.112;2023-04-19T15:33:35;19.20;80.70
20546;DHT22;10431;50.228;9.112;2023-04-19T15:36:02;19.20;77.70
20546;DHT22;10431;50.228;9.112;2023-04-19T15:38:30;19.10;70.60
20546;DHT22;10431;50.228;9.112;2023-04-19T15:40:58;18.90;70.70
20546;DHT22;10431;50.228;9.112;2023-04-19T15:43:24;18.80;68.70
20546;DHT22;10431;50.228;9.112;2023-04-19T15:45:50;18.70;67.00
20546;DHT22;10431;50.228;9.112;2023-04-19T15:48:17;18.70;67.50